Mattoon, Kentucky
Current Conditions -  °F | °C
As of 11:55 AM on Friday 24 Oct 2014 (Local Time) from K5M9 Reporting Station
Overcast Overcast  
Wind Chill: 64°   Ceiling: 3100
Heat Index: 64°   Visibility: 10mi
Dew Point: 52°   Wind: 5mph
Humidity: 64%   Direction: 250°WSW
Pressure: 30.12"   Gusts: NA
Location:  37.3359°N, 88.1049°W
Report Text: K5M9 241655Z AUTO 25004KT 10SM OVC031 18/11 A3012 RMK AO2 T01790110
Loading
Personal Weather Stations






























Interactive Weather Map
Tropical Storm Tracking
New forecast layout! Learn more

10-Day Weather Forecast

Advertisements
Track Severe Weather on mobile